createdAt,value
2023-04-16T00:00:07.797Z,102323.66
2023-04-16T00:03:10.447Z,102328.41
2023-04-16T00:06:14.789Z,102332.63
2023-04-16T00:09:17.311Z,102332.94
2023-04-16T00:12:19.856Z,102337.19
2023-04-16T00:15:22.447Z,102340.28
2023-04-16T00:18:25.083Z,102335.00
2023-04-16T00:21:29.052Z,102333.88
2023-04-16T00:24:31.544Z,102341.09
2023-04-16T00:27:34.047Z,102335.53
2023-04-16T00:30:36.620Z,102335.53
2023-04-16T00:33:39.186Z,102329.97
2023-04-16T00:36:43.113Z,102332.22
2023-04-16T00:39:45.648Z,102329.78
2023-04-16T00:42:48.226Z,102319.28
2023-04-16T00:45:50.780Z,102322.34
2023-04-16T00:48:54.641Z,102323.50
2023-04-16T00:51:58.608Z,102326.28
2023-04-16T00:55:01.214Z,102327.09
2023-04-16T00:58:04.120Z,102330.22
2023-04-16T01:01:06.803Z,102323.00
2023-04-16T01:04:09.599Z,102330.22
2023-04-16T01:07:13.566Z,102330.22
2023-04-16T01:10:16.109Z,102334.94
2023-04-16T01:13:18.617Z,102336.59
2023-04-16T01:16:21.201Z,102327.09
2023-04-16T01:19:23.808Z,102327.91
2023-04-16T01:22:27.912Z,102327.44
2023-04-16T01:25:30.488Z,102327.44
2023-04-16T01:28:33.034Z,102327.72
2023-04-16T01:31:35.621Z,102331.94
2023-04-16T01:34:38.213Z,102329.81
2023-04-16T01:37:42.127Z,102331.47
2023-04-16T01:40:44.626Z,102334.25
2023-04-16T01:43:47.166Z,102335.38
2023-04-16T01:46:49.808Z,102334.53
2023-04-16T01:49:52.399Z,102334.31
2023-04-16T01:52:56.276Z,102331.06
2023-04-16T01:55:58.848Z,102338.88
2023-04-16T01:59:01.431Z,102343.31
2023-04-16T02:02:04.539Z,102338.88
2023-04-16T02:05:07.603Z,102340.84
2023-04-16T02:08:11.481Z,102340.53
2023-04-16T02:11:13.988Z,102343.91
2023-04-16T02:14:16.500Z,102343.91
2023-04-16T02:17:19.079Z,102343.44
2023-04-16T02:20:21.712Z,102346.50
2023-04-16T02:23:25.630Z,102345.16
2023-04-16T02:26:29.154Z,102356.28
2023-04-16T02:29:31.911Z,102357.41
2023-04-16T02:32:34.478Z,102352.47
2023-04-16T02:35:37.123Z,102348.03
2023-04-16T02:38:41.144Z,102354.72
2023-04-16T02:41:43.700Z,102340.31
2023-04-16T02:44:46.205Z,102357.00
2023-04-16T02:47:48.899Z,102344.53
2023-04-16T02:50:51.471Z,102354.31
2023-04-16T02:53:55.403Z,102349.38
2023-04-16T02:56:57.998Z,102346.06
2023-04-16T03:00:00.633Z,102348.34
2023-04-16T03:03:03.278Z,102353.91
2023-04-16T03:06:06.012Z,102356.34
2023-04-16T03:09:10.171Z,102351.94
2023-04-16T03:12:12.870Z,102359.47
2023-04-16T03:15:15.420Z,102352.25
2023-04-16T03:18:17.977Z,102358.44
2023-04-16T03:21:20.639Z,102362.34
2023-04-16T03:24:24.677Z,102354.63
2023-04-16T03:27:27.175Z,102357.41
2023-04-16T03:30:29.702Z,102361.31
2023-04-16T03:33:32.256Z,102362.97
2023-04-16T03:36:34.813Z,102364.91
2023-04-16T03:39:38.715Z,102363.56
2023-04-16T03:42:41.381Z,102358.63
2023-04-16T03:45:45.296Z,102356.97
2023-04-16T03:48:47.892Z,102356.16
2023-04-16T03:51:50.485Z,102356.78
2023-04-16T03:54:54.376Z,102360.69
2023-04-16T03:57:57.406Z,102359.88
2023-04-16T04:00:59.978Z,102358.22
2023-04-16T04:04:02.670Z,102358.22
2023-04-16T04:07:06.438Z,102358.22
2023-04-16T04:10:11.180Z,102357.38
2023-04-16T04:13:13.759Z,102362.13
2023-04-16T04:16:16.402Z,102360.47
2023-04-16T04:19:18.970Z,102354.91
2023-04-16T04:22:21.549Z,102363.25
2023-04-16T04:25:25.758Z,102356.03
2023-04-16T04:28:28.264Z,102354.91
2023-04-16T04:31:30.906Z,102351.63
2023-04-16T04:34:33.543Z,102355.53
2023-04-16T04:37:36.157Z,102350.81
2023-04-16T04:40:40.037Z,102358.31
2023-04-16T04:43:42.573Z,102365.00
2023-04-16T04:46:45.129Z,102357.78
2023-04-16T04:49:47.697Z,102361.69
2023-04-16T04:52:50.412Z,102372.31
2023-04-16T04:55:57.571Z,102376.72
2023-04-16T04:59:08.038Z,102382.28
2023-04-16T05:02:10.875Z,102384.56
2023-04-16T05:05:13.551Z,102386.19
2023-04-16T05:08:16.171Z,102387.31
2023-04-16T05:11:20.035Z,102394.53
2023-04-16T05:14:22.533Z,102392.88
2023-04-16T05:17:25.058Z,102397.31
2023-04-16T05:20:27.629Z,102404.50
2023-04-16T05:23:30.259Z,102404.50
2023-04-16T05:26:34.153Z,102408.09
2023-04-16T05:29:36.729Z,102398.94
2023-04-16T05:32:40.498Z,102410.06
2023-04-16T05:35:43.104Z,102416.44
2023-04-16T05:38:45.613Z,102408.94
2023-04-16T05:41:49.471Z,102408.94
2023-04-16T05:44:52.068Z,102415.59
2023-04-16T05:47:54.704Z,102412.84
2023-04-16T05:50:57.313Z,102413.66
2023-04-16T05:53:59.861Z,102409.47
2023-04-16T05:57:04.380Z,102412.75
2023-04-16T06:00:08.393Z,102408.34
2023-04-16T06:03:11.111Z,102411.09
2023-04-16T06:06:13.796Z,102410.47
2023-04-16T06:09:16.573Z,102423.06
2023-04-16T06:12:20.620Z,102423.06
2023-04-16T06:15:23.212Z,102418.31
2023-04-16T06:18:25.790Z,102428.91
2023-04-16T06:21:28.373Z,102427.78
2023-04-16T06:24:31.005Z,102433.34
2023-04-16T06:27:34.928Z,102436.13
2023-04-16T06:30:37.486Z,102434.16
2023-04-16T06:33:40.061Z,102435.00
2023-04-16T06:36:42.580Z,102442.19
2023-04-16T06:39:45.180Z,102445.50
2023-04-16T06:42:49.105Z,102447.13
2023-04-16T06:45:52.101Z,102449.91
2023-04-16T06:48:54.619Z,102446.00
2023-04-16T06:51:57.175Z,102453.53
2023-04-16T06:54:59.710Z,102454.34
2023-04-16T06:58:03.612Z,102457.63
2023-04-16T07:01:06.393Z,102458.47
2023-04-16T07:04:09.329Z,102456.84
2023-04-16T07:07:12.005Z,102460.41
2023-04-16T07:10:14.680Z,102462.59
2023-04-16T07:13:19.482Z,102462.59
2023-04-16T07:16:22.092Z,102468.97
2023-04-16T07:19:24.731Z,102465.06
2023-04-16T07:22:27.236Z,102468.69
2023-04-16T07:25:29.784Z,102465.91
2023-04-16T07:28:33.703Z,102477.03
2023-04-16T07:31:36.291Z,102466.72
2023-04-16T07:34:38.888Z,102469.19
2023-04-16T07:37:41.481Z,102465.28
2023-04-16T07:40:44.007Z,102471.66
2023-04-16T07:43:47.893Z,102473.03
2023-04-16T07:46:50.494Z,102477.75
2023-04-16T07:49:53.276Z,102481.34
2023-04-16T07:52:55.848Z,102488.56
2023-04-16T07:55:58.424Z,102490.19
2023-04-16T07:59:11.064Z,102493.50
2023-04-16T08:02:17.536Z,102486.28
2023-04-16T08:05:20.384Z,102489.59
2023-04-16T08:08:23.003Z,102496.81
2023-04-16T08:11:25.656Z,102504.31
2023-04-16T08:14:29.575Z,102504.03
2023-04-16T08:17:34.336Z,102508.75
2023-04-16T08:20:36.878Z,102516.28
2023-04-16T08:23:39.396Z,102513.50
2023-04-16T08:26:41.895Z,102520.72
2023-04-16T08:29:45.800Z,102512.28
2023-04-16T08:32:50.032Z,102508.38
2023-04-16T08:35:52.828Z,102507.22
2023-04-16T08:38:55.380Z,102508.88
2023-04-16T08:41:58.036Z,102516.63
2023-04-16T08:45:07.469Z,102515.16
2023-04-16T08:48:10.875Z,102524.84
2023-04-16T08:51:13.408Z,102526.25
2023-04-16T08:54:16.089Z,102519.53
2023-04-16T08:57:20.153Z,102531.72
2023-04-16T09:00:24.265Z,102528.41
2023-04-16T09:03:26.943Z,102543.13
2023-04-16T09:06:29.578Z,102538.41
2023-04-16T09:09:34.555Z,102545.31
2023-04-16T09:12:37.182Z,102543.34
2023-04-16T09:15:41.137Z,102543.03
2023-04-16T09:18:43.732Z,102535.81
2023-04-16T09:21:47.302Z,102540.56
2023-04-16T09:24:49.822Z,102543.03
2023-04-16T09:27:52.396Z,102544.38
2023-04-16T09:31:12.870Z,102549.66
2023-04-16T09:34:15.640Z,102549.13
2023-04-16T09:37:18.211Z,102555.81
2023-04-16T09:40:24.648Z,102565.81
2023-04-16T09:43:27.839Z,102567.97
2023-04-16T09:46:32.650Z,102566.84
2023-04-16T09:49:35.441Z,102575.19
2023-04-16T09:52:38.378Z,102562.41
2023-04-16T09:55:40.900Z,102565.50
2023-04-16T09:58:43.472Z,102569.13
2023-04-16T10:01:49.394Z,102574.16
2023-04-16T10:04:53.091Z,102579.91
2023-04-16T10:07:55.825Z,102572.41
2023-04-16T10:10:58.424Z,102578.50
2023-04-16T10:14:01.431Z,102574.78
2023-04-16T10:17:06.209Z,102575.03
2023-04-16T10:20:09.275Z,102584.69
2023-04-16T10:23:11.848Z,102585.50
2023-04-16T10:26:14.387Z,102590.50
2023-04-16T10:29:16.979Z,102589.84
2023-04-16T10:32:21.737Z,102587.59
2023-04-16T10:35:26.121Z,102589.56
2023-04-16T10:38:28.850Z,102594.59
2023-04-16T10:41:33.433Z,102600.38
2023-04-16T10:44:36.032Z,102598.09
2023-04-16T10:47:43.177Z,102591.41
2023-04-16T10:51:00.102Z,102597.50
2023-04-16T10:54:04.992Z,102600.00
2023-04-16T10:57:08.407Z,102600.81
2023-04-16T11:00:22.936Z,102601.00
2023-04-16T11:03:27.385Z,102597.94
2023-04-16T11:06:32.092Z,102594.03
2023-04-16T11:09:56.122Z,102590.06
2023-04-16T11:12:58.756Z,102591.25
2023-04-16T11:16:02.231Z,102595.66
2023-04-16T11:19:06.111Z,102595.03
2023-04-16T11:22:08.657Z,102598.34
2023-04-16T11:25:11.215Z,102591.03
2023-04-16T11:28:13.713Z,102590.41
2023-04-16T11:31:16.524Z,102590.91
2023-04-16T11:34:20.665Z,102588.66
2023-04-16T11:37:23.632Z,102597.50
2023-04-16T11:40:26.382Z,102586.38
2023-04-16T11:43:28.889Z,102596.06
2023-04-16T11:46:39.145Z,102595.16
2023-04-16T11:49:43.091Z,102598.16
2023-04-16T11:52:45.631Z,102602.25
2023-04-16T11:55:48.230Z,102599.16
2023-04-16T11:59:09.417Z,102595.06
2023-04-16T12:02:12.197Z,102605.03
2023-04-16T12:05:30.151Z,102600.00
2023-04-16T12:08:32.908Z,102608.88
2023-04-16T12:11:41.475Z,102602.78
2023-04-16T12:14:50.975Z,102600.19
2023-04-16T12:18:03.394Z,102605.16
2023-04-16T12:21:07.888Z,102608.66
2023-04-16T12:24:11.353Z,102604.94
2023-04-16T12:27:13.860Z,102605.75
2023-04-16T12:30:16.757Z,102609.06
2023-04-16T12:33:21.049Z,102607.09
2023-04-16T12:36:24.923Z,102610.09
2023-04-16T12:39:27.480Z,102609.47
2023-04-16T12:42:35.559Z,102612.16
2023-04-16T12:45:38.859Z,102609.06
2023-04-16T12:48:41.567Z,102614.81
2023-04-16T12:51:45.524Z,102616.47
2023-04-16T12:54:48.075Z,102616.47
2023-04-16T12:57:52.664Z,102613.38
2023-04-16T13:00:55.197Z,102615.03
2023-04-16T13:03:58.075Z,102618.66
2023-04-16T13:07:02.218Z,102615.34
2023-04-16T13:10:05.225Z,102617.00
2023-04-16T13:13:07.796Z,102615.34
2023-04-16T13:16:10.466Z,102609.75
2023-04-16T13:19:13.140Z,102615.03
2023-04-16T13:22:17.172Z,102621.94
2023-04-16T13:25:19.829Z,102615.22
2023-04-16T13:28:22.383Z,102612.97
2023-04-16T13:31:24.995Z,102620.69
2023-04-16T13:34:27.599Z,102614.78
2023-04-16T13:37:31.497Z,102613.97
2023-04-16T13:40:34.066Z,102617.28
2023-04-16T13:43:37.858Z,102620.56
2023-04-16T13:46:40.457Z,102611.06
2023-04-16T13:49:43.038Z,102610.63
2023-04-16T13:52:46.926Z,102614.13
2023-04-16T13:55:49.856Z,102614.34
2023-04-16T13:58:52.389Z,102620.13
2023-04-16T14:01:55.041Z,102624.25
2023-04-16T14:04:57.634Z,102620.00
2023-04-16T14:08:01.518Z,102620.53
2023-04-16T14:11:05.465Z,102620.84
2023-04-16T14:14:08.055Z,102629.19
2023-04-16T14:17:10.693Z,102624.44
2023-04-16T14:20:14.054Z,102626.22
2023-04-16T14:23:18.004Z,102621.78
2023-04-16T14:26:20.634Z,102618.47
2023-04-16T14:29:23.183Z,102612.38
2023-04-16T14:32:25.722Z,102619.09
2023-04-16T14:35:28.403Z,102615.78
2023-04-16T14:38:32.438Z,102616.91
2023-04-16T14:41:35.156Z,102620.03
2023-04-16T14:44:37.921Z,102618.88
2023-04-16T14:47:45.636Z,102618.56
2023-04-16T14:50:48.363Z,102619.91
2023-04-16T14:53:52.224Z,102619.66
2023-04-16T14:56:54.770Z,102620.13
2023-04-16T14:59:57.288Z,102619.00
2023-04-16T15:03:00.015Z,102617.03
2023-04-16T15:06:02.645Z,102610.03
2023-04-16T15:09:07.404Z,102609.69
2023-04-16T15:12:09.989Z,102606.06
2023-04-16T15:15:12.758Z,102617.22
2023-04-16T15:18:16.328Z,102614.44
2023-04-16T15:21:18.936Z,102612.28
2023-04-16T15:24:22.859Z,102612.91
2023-04-16T15:27:25.568Z,102613.50
2023-04-16T15:30:28.109Z,102614.13
2023-04-16T15:33:30.695Z,102617.25
2023-04-16T15:36:33.279Z,102614.78
2023-04-16T15:39:37.154Z,102607.34
2023-04-16T15:42:39.877Z,102610.44
2023-04-16T15:45:42.533Z,102606.84
2023-04-16T15:48:45.215Z,102604.88
2023-04-16T15:51:47.787Z,102597.66
2023-04-16T15:54:51.676Z,102608.28
2023-04-16T15:57:54.179Z,102613.38
2023-04-16T16:00:56.704Z,102609.41
2023-04-16T16:03:59.364Z,102614.19
2023-04-16T16:07:03.020Z,102607.25
2023-04-16T16:10:08.189Z,102619.53
2023-04-16T16:13:13.079Z,102613.97
2023-04-16T16:16:16.037Z,102614.78
2023-04-16T16:19:18.680Z,102615.63
2023-04-16T16:22:23.534Z,102612.31
2023-04-16T16:25:27.473Z,102613.97
2023-04-16T16:28:29.981Z,102619.03
2023-04-16T16:31:32.561Z,102621.81
2023-04-16T16:34:35.392Z,102620.69
2023-04-16T16:37:38.220Z,102619.53
2023-04-16T16:40:42.159Z,102622.84
2023-04-16T16:43:44.653Z,102617.59
2023-04-16T16:46:48.090Z,102619.53
2023-04-16T16:49:51.143Z,102622.34
2023-04-16T16:52:53.716Z,102625.75
2023-04-16T16:55:57.634Z,102622.16
2023-04-16T16:59:00.177Z,102628.84
2023-04-16T17:02:03.455Z,102627.38
2023-04-16T17:05:07.487Z,102623.47
2023-04-16T17:08:10.335Z,102635.97
2023-04-16T17:11:14.448Z,102631.72
2023-04-16T17:14:17.064Z,102626.13
2023-04-16T17:17:19.654Z,102632.88
2023-04-16T17:20:22.185Z,102641.22
2023-04-16T17:23:24.680Z,102625.94
2023-04-16T17:26:28.622Z,102633.47
2023-04-16T17:29:31.240Z,102635.25
2023-04-16T17:32:33.974Z,102635.25
2023-04-16T17:35:36.630Z,102630.28
2023-04-16T17:38:39.261Z,102630.09
2023-04-16T17:41:43.128Z,102638.75
2023-04-16T17:44:45.794Z,102637.75
2023-04-16T17:47:48.337Z,102634.44
2023-04-16T17:50:50.910Z,102627.22
2023-04-16T17:53:53.479Z,102635.06
2023-04-16T17:56:58.370Z,102643.72
2023-04-16T18:00:00.917Z,102640.72
2023-04-16T18:03:03.656Z,102655.78
2023-04-16T18:06:06.684Z,102645.81
2023-04-16T18:09:09.221Z,102651.69
2023-04-16T18:12:13.207Z,102654.25
2023-04-16T18:15:15.881Z,102659.31
2023-04-16T18:18:20.017Z,102661.06
2023-04-16T18:21:22.582Z,102656.94
2023-04-16T18:24:25.221Z,102659.00
2023-04-16T18:27:29.142Z,102657.94
2023-04-16T18:30:31.666Z,102659.09
2023-04-16T18:33:53.957Z,102666.31
2023-04-16T18:36:56.865Z,102669.09
2023-04-16T18:39:59.462Z,102667.97
2023-04-16T18:43:03.403Z,102671.88
2023-04-16T18:46:06.093Z,102677.44
2023-04-16T18:49:08.875Z,102683.34
2023-04-16T18:52:11.600Z,102683.34
2023-04-16T18:55:14.134Z,102684.16
2023-04-16T18:58:18.006Z,102689.75
2023-04-16T19:01:20.687Z,102684.78
2023-04-16T19:04:23.326Z,102690.34
2023-04-16T19:07:25.901Z,102695.09
2023-04-16T19:10:28.494Z,102696.53
2023-04-16T19:13:32.761Z,102693.75
2023-04-16T19:16:35.370Z,102687.13
2023-04-16T19:19:37.955Z,102703.53
2023-04-16T19:22:40.706Z,102699.91
2023-04-16T19:25:43.246Z,102701.56
2023-04-16T19:28:47.124Z,102704.97
2023-04-16T19:31:49.743Z,102699.38
2023-04-16T19:34:52.361Z,102703.31
2023-04-16T19:37:56.199Z,102704.47
2023-04-16T19:40:58.767Z,102703.94
2023-04-16T19:44:02.657Z,102703.41
2023-04-16T19:47:06.132Z,102697.34
2023-04-16T19:50:09.568Z,102697.63
2023-04-16T19:53:12.171Z,102708.25
2023-04-16T19:56:15.867Z,102712.97
2023-04-16T19:59:20.460Z,102706.91
2023-04-16T20:02:23.201Z,102706.38
2023-04-16T20:05:26.088Z,102704.72
2023-04-16T20:08:28.659Z,102704.19
2023-04-16T20:11:31.301Z,102709.84
2023-04-16T20:14:35.233Z,102708.81
2023-04-16T20:17:37.891Z,102707.16
2023-04-16T20:20:41.418Z,102717.47
2023-04-16T20:23:44.000Z,102707.78
2023-04-16T20:26:46.527Z,102714.97
2023-04-16T20:29:51.672Z,102713.34
2023-04-16T20:32:54.193Z,102711.69
2023-04-16T20:35:56.761Z,102710.03
2023-04-16T20:39:02.078Z,102715.59
2023-04-16T20:42:09.962Z,102713.94
2023-04-16T20:45:14.314Z,102708.38
2023-04-16T20:48:17.005Z,102706.72
2023-04-16T20:51:19.643Z,102712.00
2023-04-16T20:54:22.157Z,102701.97
2023-04-16T20:57:24.708Z,102701.16
2023-04-16T21:00:28.583Z,102693.94
2023-04-16T21:03:31.327Z,102697.25
2023-04-16T21:06:38.346Z,102692.28
2023-04-16T21:09:41.196Z,102692.91
2023-04-16T21:12:43.779Z,102694.03
2023-04-16T21:15:47.690Z,102689.09
2023-04-16T21:18:50.372Z,102685.22
2023-04-16T21:21:52.949Z,102686.16
2023-04-16T21:24:55.484Z,102687.06
2023-04-16T21:27:58.098Z,102695.91
2023-04-16T21:31:02.058Z,102686.44
2023-04-16T21:34:04.647Z,102688.09
2023-04-16T21:37:07.174Z,102684.19
2023-04-16T21:40:10.193Z,102681.94
2023-04-16T21:43:12.757Z,102683.56
2023-04-16T21:46:16.691Z,102682.97
2023-04-16T21:49:19.353Z,102677.41
2023-04-16T21:52:21.993Z,102677.63
2023-04-16T21:55:24.695Z,102681.22
2023-04-16T21:58:27.265Z,102679.00
2023-04-16T22:01:31.241Z,102673.97
2023-04-16T22:04:38.391Z,102686.72
2023-04-16T22:07:41.248Z,102678.38
2023-04-16T22:10:43.850Z,102681.16
2023-04-16T22:13:47.504Z,102679.19
2023-04-16T22:16:52.197Z,102690.03
2023-04-16T22:19:54.908Z,102682.81
2023-04-16T22:22:58.570Z,102682.31
2023-04-16T22:26:02.483Z,102682.59
2023-04-16T22:29:05.069Z,102680.09
2023-04-16T22:32:09.001Z,102680.09
2023-04-16T22:35:12.458Z,102676.78
2023-04-16T22:38:14.999Z,102676.78
2023-04-16T22:41:17.612Z,102675.16
2023-04-16T22:44:20.205Z,102670.44
2023-04-16T22:47:24.117Z,102671.22
2023-04-16T22:50:27.089Z,102683.19
2023-04-16T22:53:29.585Z,102675.16
2023-04-16T22:56:32.147Z,102665.84
2023-04-16T22:59:34.738Z,102672.63
2023-04-16T23:02:38.735Z,102674.97
2023-04-16T23:05:41.354Z,102675.03
2023-04-16T23:08:43.943Z,102680.59
2023-04-16T23:11:46.519Z,102682.81
2023-04-16T23:14:49.116Z,102675.09
2023-04-16T23:17:53.040Z,102667.34
2023-04-16T23:20:55.655Z,102676.22
2023-04-16T23:23:59.073Z,102680.66
2023-04-16T23:27:01.619Z,102680.38
2023-04-16T23:30:04.512Z,102682.81
2023-04-16T23:33:08.557Z,102680.88
2023-04-16T23:36:11.294Z,102682.81
2023-04-16T23:39:13.910Z,102683.66
2023-04-16T23:42:16.555Z,102682.53
2023-04-16T23:45:19.265Z,102678.09
2023-04-16T23:48:23.118Z,102686.13
2023-04-16T23:51:26.202Z,102686.44
2023-04-16T23:54:28.720Z,102684.47
2023-04-16T23:57:31.229Z,102681.16
